sensor_id;sensor_type;location;lat;lon;timestamp;temperature;humidity
152;DHT22;68;48.792;9.164;2023-03-21T00:02:22;10.00;92.20
152;DHT22;68;48.792;9.164;2023-03-21T00:04:49;10.00;92.80
152;DHT22;68;48.792;9.164;2023-03-21T00:07:17;9.90;93.60
152;DHT22;68;48.792;9.164;2023-03-21T00:09:44;9.90;93.90
152;DHT22;68;48.792;9.164;2023-03-21T00:12:11;9.90;94.10
152;DHT22;68;48.792;9.164;2023-03-21T00:14:38;9.80;94.50
152;DHT22;68;48.792;9.164;2023-03-21T00:17:05;9.90;94.60
152;DHT22;68;48.792;9.164;2023-03-21T00:19:32;9.80;94.50
152;DHT22;68;48.792;9.164;2023-03-21T00:22:03;9.80;94.50
152;DHT22;68;48.792;9.164;2023-03-21T00:24:31;9.80;94.60
152;DHT22;68;48.792;9.164;2023-03-21T00:26:58;9.80;94.60
152;DHT22;68;48.792;9.164;2023-03-21T00:29:25;9.80;94.40
152;DHT22;68;48.792;9.164;2023-03-21T00:31:52;9.80;94.50
152;DHT22;68;48.792;9.164;2023-03-21T00:34:19;9.80;94.30
152;DHT22;68;48.792;9.164;2023-03-21T00:36:45;9.80;94.00
152;DHT22;68;48.792;9.164;2023-03-21T00:39:12;9.80;93.80
152;DHT22;68;48.792;9.164;2023-03-21T00:41:41;10.10;94.00
152;DHT22;68;48.792;9.164;2023-03-21T00:44:08;10.00;93.10
152;DHT22;68;48.792;9.164;2023-03-21T00:46:36;10.00;93.00
152;DHT22;68;48.792;9.164;2023-03-21T00:49:02;10.00;93.20
152;DHT22;68;48.792;9.164;2023-03-21T00:51:29;10.10;93.40
152;DHT22;68;48.792;9.164;2023-03-21T00:53:57;10.10;92.80
152;DHT22;68;48.792;9.164;2023-03-21T00:56:24;10.10;92.50
152;DHT22;68;48.792;9.164;2023-03-21T00:58:52;10.10;92.10
152;DHT22;68;48.792;9.164;2023-03-21T01:01:19;10.20;92.10
152;DHT22;68;48.792;9.164;2023-03-21T01:03:45;10.00;92.20
152;DHT22;68;48.792;9.164;2023-03-21T01:06:16;10.00;92.60
152;DHT22;68;48.792;9.164;2023-03-21T01:08:46;9.90;92.60
152;DHT22;68;48.792;9.164;2023-03-21T01:11:15;9.90;92.50
152;DHT22;68;48.792;9.164;2023-03-21T01:13:42;10.00;92.90
152;DHT22;68;48.792;9.164;2023-03-21T01:16:11;10.10;92.60
152;DHT22;68;48.792;9.164;2023-03-21T01:18:39;10.20;92.30
152;DHT22;68;48.792;9.164;2023-03-21T01:21:08;10.40;92.10
152;DHT22;68;48.792;9.164;2023-03-21T01:23:35;10.50;92.10
152;DHT22;68;48.792;9.164;2023-03-21T01:26:03;10.80;91.50
152;DHT22;68;48.792;9.164;2023-03-21T01:28:30;10.70;90.10
152;DHT22;68;48.792;9.164;2023-03-21T01:30:59;10.50;90.50
152;DHT22;68;48.792;9.164;2023-03-21T01:33:29;10.30;92.00
152;DHT22;68;48.792;9.164;2023-03-21T01:35:56;10.00;92.00
152;DHT22;68;48.792;9.164;2023-03-21T01:38:23;9.90;92.40
152;DHT22;68;48.792;9.164;2023-03-21T01:40:51;10.00;94.10
152;DHT22;68;48.792;9.164;2023-03-21T01:43:24;9.80;93.40
152;DHT22;68;48.792;9.164;2023-03-21T01:46:31;9.80;93.70
152;DHT22;68;48.792;9.164;2023-03-21T01:49:05;10.00;93.90
152;DHT22;68;48.792;9.164;2023-03-21T01:51:35;10.20;93.70
152;DHT22;68;48.792;9.164;2023-03-21T01:54:03;10.10;93.20
152;DHT22;68;48.792;9.164;2023-03-21T01:56:35;10.10;93.40
152;DHT22;68;48.792;9.164;2023-03-21T01:59:06;10.10;93.70
152;DHT22;68;48.792;9.164;2023-03-21T02:01:34;10.30;94.20
152;DHT22;68;48.792;9.164;2023-03-21T02:04:04;10.40;94.10
152;DHT22;68;48.792;9.164;2023-03-21T02:06:38;10.30;93.90
152;DHT22;68;48.792;9.164;2023-03-21T02:09:08;10.10;93.70
152;DHT22;68;48.792;9.164;2023-03-21T02:11:37;9.90;94.40
152;DHT22;68;48.792;9.164;2023-03-21T02:14:04;10.00;94.70
152;DHT22;68;48.792;9.164;2023-03-21T02:16:46;10.20;95.10
152;DHT22;68;48.792;9.164;2023-03-21T02:22:40;10.20;93.50
152;DHT22;68;48.792;9.164;2023-03-21T02:25:45;10.00;93.70
152;DHT22;68;48.792;9.164;2023-03-21T02:28:20;9.90;93.70
152;DHT22;68;48.792;9.164;2023-03-21T02:37:02;9.70;95.30
152;DHT22;68;48.792;9.164;2023-03-21T02:39:37;9.70;94.90
152;DHT22;68;48.792;9.164;2023-03-21T02:42:10;9.70;94.80
152;DHT22;68;48.792;9.164;2023-03-21T02:44:43;9.50;94.80
152;DHT22;68;48.792;9.164;2023-03-21T02:47:14;9.40;95.10
152;DHT22;68;48.792;9.164;2023-03-21T02:49:46;9.40;95.30
152;DHT22;68;48.792;9.164;2023-03-21T02:52:19;9.50;95.30
152;DHT22;68;48.792;9.164;2023-03-21T02:54:48;9.50;95.50
152;DHT22;68;48.792;9.164;2023-03-21T02:57:17;9.50;95.40
152;DHT22;68;48.792;9.164;2023-03-21T02:59:45;9.50;95.40
152;DHT22;68;48.792;9.164;2023-03-21T03:02:14;9.40;95.40
152;DHT22;68;48.792;9.164;2023-03-21T03:04:42;9.40;95.50
152;DHT22;68;48.792;9.164;2023-03-21T03:07:16;9.40;95.50
152;DHT22;68;48.792;9.164;2023-03-21T03:09:59;9.50;95.50
152;DHT22;68;48.792;9.164;2023-03-21T03:12:36;9.50;95.50
152;DHT22;68;48.792;9.164;2023-03-21T03:15:11;9.40;95.40
152;DHT22;68;48.792;9.164;2023-03-21T03:17:49;9.50;95.40
152;DHT22;68;48.792;9.164;2023-03-21T03:20:22;9.50;95.30
152;DHT22;68;48.792;9.164;2023-03-21T03:22:57;9.50;95.30
152;DHT22;68;48.792;9.164;2023-03-21T03:25:29;9.50;95.20
152;DHT22;68;48.792;9.164;2023-03-21T03:27:59;9.40;95.30
152;DHT22;68;48.792;9.164;2023-03-21T03:30:27;9.40;95.40
152;DHT22;68;48.792;9.164;2023-03-21T03:32:57;9.40;95.60
152;DHT22;68;48.792;9.164;2023-03-21T03:35:25;9.40;95.50
152;DHT22;68;48.792;9.164;2023-03-21T03:37:56;9.50;95.50
152;DHT22;68;48.792;9.164;2023-03-21T03:40:27;9.50;95.50
152;DHT22;68;48.792;9.164;2023-03-21T03:42:59;9.50;95.50
152;DHT22;68;48.792;9.164;2023-03-21T03:45:30;9.50;95.60
152;DHT22;68;48.792;9.164;2023-03-21T03:48:03;9.50;95.80
152;DHT22;68;48.792;9.164;2023-03-21T03:50:36;9.40;95.70
152;DHT22;68;48.792;9.164;2023-03-21T03:53:07;9.40;95.70
152;DHT22;68;48.792;9.164;2023-03-21T03:55:37;9.60;95.80
152;DHT22;68;48.792;9.164;2023-03-21T03:58:04;9.50;95.70
152;DHT22;68;48.792;9.164;2023-03-21T04:00:31;9.50;95.70
152;DHT22;68;48.792;9.164;2023-03-21T04:02:59;9.50;95.70
152;DHT22;68;48.792;9.164;2023-03-21T04:05:26;9.40;95.70
152;DHT22;68;48.792;9.164;2023-03-21T04:07:52;9.30;95.70
152;DHT22;68;48.792;9.164;2023-03-21T04:10:21;9.30;95.70
152;DHT22;68;48.792;9.164;2023-03-21T04:12:47;9.60;95.70
152;DHT22;68;48.792;9.164;2023-03-21T04:15:14;9.50;95.80
152;DHT22;68;48.792;9.164;2023-03-21T04:17:41;9.40;95.80
152;DHT22;68;48.792;9.164;2023-03-21T04:20:10;9.30;95.70
152;DHT22;68;48.792;9.164;2023-03-21T04:22:37;9.30;95.70
152;DHT22;68;48.792;9.164;2023-03-21T04:25:04;9.20;95.80
152;DHT22;68;48.792;9.164;2023-03-21T04:27:33;9.10;95.80
152;DHT22;68;48.792;9.164;2023-03-21T04:30:00;9.20;95.80
152;DHT22;68;48.792;9.164;2023-03-21T04:32:26;9.00;95.90
152;DHT22;68;48.792;9.164;2023-03-21T04:34:53;8.80;95.90
152;DHT22;68;48.792;9.164;2023-03-21T04:37:21;8.80;95.90
152;DHT22;68;48.792;9.164;2023-03-21T04:39:49;8.70;95.80
152;DHT22;68;48.792;9.164;2023-03-21T04:42:17;8.60;95.90
152;DHT22;68;48.792;9.164;2023-03-21T04:44:45;8.50;95.80
152;DHT22;68;48.792;9.164;2023-03-21T04:47:12;8.40;95.70
152;DHT22;68;48.792;9.164;2023-03-21T04:49:40;8.30;95.30
152;DHT22;68;48.792;9.164;2023-03-21T04:52:07;8.20;94.60
152;DHT22;68;48.792;9.164;2023-03-21T04:54:34;8.20;94.80
152;DHT22;68;48.792;9.164;2023-03-21T04:57:01;8.30;94.20
152;DHT22;68;48.792;9.164;2023-03-21T04:59:29;8.30;94.80
152;DHT22;68;48.792;9.164;2023-03-21T05:01:57;8.20;95.50
152;DHT22;68;48.792;9.164;2023-03-21T05:04:25;8.30;95.50
152;DHT22;68;48.792;9.164;2023-03-21T05:06:52;8.30;95.80
152;DHT22;68;48.792;9.164;2023-03-21T05:09:20;8.20;95.80
152;DHT22;68;48.792;9.164;2023-03-21T05:11:48;8.20;95.80
152;DHT22;68;48.792;9.164;2023-03-21T05:14:17;8.20;95.70
152;DHT22;68;48.792;9.164;2023-03-21T05:16:45;8.20;95.80
152;DHT22;68;48.792;9.164;2023-03-21T05:19:19;8.20;95.70
152;DHT22;68;48.792;9.164;2023-03-21T05:21:47;8.30;94.80
152;DHT22;68;48.792;9.164;2023-03-21T05:24:16;8.30;95.30
152;DHT22;68;48.792;9.164;2023-03-21T05:26:44;8.20;94.90
152;DHT22;68;48.792;9.164;2023-03-21T05:29:15;8.20;94.80
152;DHT22;68;48.792;9.164;2023-03-21T05:31:42;8.20;94.50
152;DHT22;68;48.792;9.164;2023-03-21T05:34:09;8.20;94.20
152;DHT22;68;48.792;9.164;2023-03-21T05:36:38;8.20;94.00
152;DHT22;68;48.792;9.164;2023-03-21T05:39:05;8.30;93.70
152;DHT22;68;48.792;9.164;2023-03-21T05:41:32;8.30;93.80
152;DHT22;68;48.792;9.164;2023-03-21T05:43:59;8.30;93.70
152;DHT22;68;48.792;9.164;2023-03-21T05:46:26;8.40;93.90
152;DHT22;68;48.792;9.164;2023-03-21T05:48:52;8.50;93.20
152;DHT22;68;48.792;9.164;2023-03-21T05:51:19;8.60;94.00
152;DHT22;68;48.792;9.164;2023-03-21T05:53:48;8.70;93.70
152;DHT22;68;48.792;9.164;2023-03-21T05:56:15;9.10;94.20
152;DHT22;68;48.792;9.164;2023-03-21T05:58:41;9.20;94.60
152;DHT22;68;48.792;9.164;2023-03-21T06:01:08;9.10;95.30
152;DHT22;68;48.792;9.164;2023-03-21T06:03:35;9.30;95.20
152;DHT22;68;48.792;9.164;2023-03-21T06:06:02;9.50;95.30
152;DHT22;68;48.792;9.164;2023-03-21T06:08:29;9.60;95.80
152;DHT22;68;48.792;9.164;2023-03-21T06:10:57;9.50;95.80
152;DHT22;68;48.792;9.164;2023-03-21T06:13:24;9.40;95.90
152;DHT22;68;48.792;9.164;2023-03-21T06:15:51;9.60;95.80
152;DHT22;68;48.792;9.164;2023-03-21T06:18:17;9.70;95.40
152;DHT22;68;48.792;9.164;2023-03-21T06:20:44;9.60;94.20
152;DHT22;68;48.792;9.164;2023-03-21T06:23:11;9.50;94.90
152;DHT22;68;48.792;9.164;2023-03-21T06:25:37;9.70;95.00
152;DHT22;68;48.792;9.164;2023-03-21T06:28:06;9.90;94.10
152;DHT22;68;48.792;9.164;2023-03-21T06:30:32;10.00;93.40
152;DHT22;68;48.792;9.164;2023-03-21T06:32:59;10.00;92.40
152;DHT22;68;48.792;9.164;2023-03-21T06:35:26;9.90;91.90
152;DHT22;68;48.792;9.164;2023-03-21T06:37:53;10.00;92.20
152;DHT22;68;48.792;9.164;2023-03-21T06:40:22;9.90;91.10
152;DHT22;68;48.792;9.164;2023-03-21T06:42:49;10.00;91.70
152;DHT22;68;48.792;9.164;2023-03-21T06:45:18;10.30;91.10
152;DHT22;68;48.792;9.164;2023-03-21T06:47:44;10.40;90.20
152;DHT22;68;48.792;9.164;2023-03-21T06:50:11;10.30;89.40
152;DHT22;68;48.792;9.164;2023-03-21T06:52:38;10.40;89.70
152;DHT22;68;48.792;9.164;2023-03-21T06:55:06;10.40;89.80
152;DHT22;68;48.792;9.164;2023-03-21T06:57:33;10.40;89.60
152;DHT22;68;48.792;9.164;2023-03-21T07:00:00;10.20;88.70
152;DHT22;68;48.792;9.164;2023-03-21T07:02:31;10.20;89.30
152;DHT22;68;48.792;9.164;2023-03-21T07:04:57;10.60;89.20
152;DHT22;68;48.792;9.164;2023-03-21T07:07:25;10.50;89.20
152;DHT22;68;48.792;9.164;2023-03-21T07:09:53;10.40;91.30
152;DHT22;68;48.792;9.164;2023-03-21T07:12:22;10.30;92.60
152;DHT22;68;48.792;9.164;2023-03-21T07:14:49;10.20;93.00
152;DHT22;68;48.792;9.164;2023-03-21T07:17:15;10.20;93.20
152;DHT22;68;48.792;9.164;2023-03-21T07:19:44;10.30;92.20
152;DHT22;68;48.792;9.164;2023-03-21T07:22:10;10.60;91.70
152;DHT22;68;48.792;9.164;2023-03-21T07:24:37;10.80;87.90
152;DHT22;68;48.792;9.164;2023-03-21T07:27:04;10.80;88.10
152;DHT22;68;48.792;9.164;2023-03-21T07:29:31;10.80;88.80
152;DHT22;68;48.792;9.164;2023-03-21T07:31:57;10.80;89.30
152;DHT22;68;48.792;9.164;2023-03-21T07:34:24;10.70;87.30
152;DHT22;68;48.792;9.164;2023-03-21T07:36:57;10.80;86.80
152;DHT22;68;48.792;9.164;2023-03-21T07:39:24;10.60;85.40
152;DHT22;68;48.792;9.164;2023-03-21T07:41:51;10.60;85.80
152;DHT22;68;48.792;9.164;2023-03-21T07:44:20;10.70;86.90
152;DHT22;68;48.792;9.164;2023-03-21T07:46:47;10.90;86.60
152;DHT22;68;48.792;9.164;2023-03-21T07:49:13;11.00;86.50
152;DHT22;68;48.792;9.164;2023-03-21T07:51:40;11.30;84.60
152;DHT22;68;48.792;9.164;2023-03-21T07:54:08;11.40;83.30
152;DHT22;68;48.792;9.164;2023-03-21T07:56:35;11.50;82.80
152;DHT22;68;48.792;9.164;2023-03-21T07:59:02;11.60;83.70
152;DHT22;68;48.792;9.164;2023-03-21T08:01:29;11.80;82.50
152;DHT22;68;48.792;9.164;2023-03-21T08:03:56;11.90;81.50
152;DHT22;68;48.792;9.164;2023-03-21T08:06:26;11.90;80.90
152;DHT22;68;48.792;9.164;2023-03-21T08:08:53;12.10;80.50
152;DHT22;68;48.792;9.164;2023-03-21T08:11:21;12.10;80.30
152;DHT22;68;48.792;9.164;2023-03-21T08:13:49;12.10;80.80
152;DHT22;68;48.792;9.164;2023-03-21T08:16:16;11.90;81.30
152;DHT22;68;48.792;9.164;2023-03-21T08:18:43;11.70;83.10
152;DHT22;68;48.792;9.164;2023-03-21T08:21:10;11.80;83.40
152;DHT22;68;48.792;9.164;2023-03-21T08:23:36;11.90;82.40
152;DHT22;68;48.792;9.164;2023-03-21T08:26:03;12.00;82.40
152;DHT22;68;48.792;9.164;2023-03-21T08:28:31;12.20;81.00
152;DHT22;68;48.792;9.164;2023-03-21T08:30:58;12.20;80.00
152;DHT22;68;48.792;9.164;2023-03-21T08:33:25;12.30;79.50
152;DHT22;68;48.792;9.164;2023-03-21T08:35:52;12.50;78.10
152;DHT22;68;48.792;9.164;2023-03-21T08:38:19;12.50;77.40
152;DHT22;68;48.792;9.164;2023-03-21T08:40:46;12.50;79.50
152;DHT22;68;48.792;9.164;2023-03-21T08:43:13;12.50;78.30
152;DHT22;68;48.792;9.164;2023-03-21T08:45:41;12.70;77.30
152;DHT22;68;48.792;9.164;2023-03-21T08:48:08;12.90;77.30
152;DHT22;68;48.792;9.164;2023-03-21T08:50:34;13.20;76.90
152;DHT22;68;48.792;9.164;2023-03-21T08:53:02;13.30;75.30
152;DHT22;68;48.792;9.164;2023-03-21T08:55:28;13.40;74.20
152;DHT22;68;48.792;9.164;2023-03-21T08:57:56;13.50;74.40
152;DHT22;68;48.792;9.164;2023-03-21T09:00:23;13.60;72.30
152;DHT22;68;48.792;9.164;2023-03-21T09:02:51;13.50;71.70
152;DHT22;68;48.792;9.164;2023-03-21T09:05:19;13.70;68.70
152;DHT22;68;48.792;9.164;2023-03-21T09:07:47;13.80;66.90
152;DHT22;68;48.792;9.164;2023-03-21T09:10:16;13.90;66.70
152;DHT22;68;48.792;9.164;2023-03-21T09:12:43;14.00;66.20
152;DHT22;68;48.792;9.164;2023-03-21T09:15:10;13.90;65.80
152;DHT22;68;48.792;9.164;2023-03-21T09:17:38;14.00;65.00
152;DHT22;68;48.792;9.164;2023-03-21T09:20:10;13.90;65.70
152;DHT22;68;48.792;9.164;2023-03-21T09:22:44;13.70;67.00
152;DHT22;68;48.792;9.164;2023-03-21T09:25:11;14.00;65.20
152;DHT22;68;48.792;9.164;2023-03-21T09:27:38;14.00;66.50
152;DHT22;68;48.792;9.164;2023-03-21T09:30:06;14.20;65.10
152;DHT22;68;48.792;9.164;2023-03-21T09:32:36;14.20;64.80
152;DHT22;68;48.792;9.164;2023-03-21T09:35:03;14.20;65.40
152;DHT22;68;48.792;9.164;2023-03-21T09:37:33;14.50;65.70
152;DHT22;68;48.792;9.164;2023-03-21T09:40:03;14.60;64.70
152;DHT22;68;48.792;9.164;2023-03-21T09:42:37;14.60;66.60
152;DHT22;68;48.792;9.164;2023-03-21T09:45:12;14.80;65.20
152;DHT22;68;48.792;9.164;2023-03-21T09:47:43;15.00;64.60
152;DHT22;68;48.792;9.164;2023-03-21T09:50:19;15.20;64.60
152;DHT22;68;48.792;9.164;2023-03-21T09:52:52;15.30;62.70
152;DHT22;68;48.792;9.164;2023-03-21T09:55:23;15.20;62.60
152;DHT22;68;48.792;9.164;2023-03-21T09:57:59;15.30;63.30
152;DHT22;68;48.792;9.164;2023-03-21T10:00:35;15.40;63.10
152;DHT22;68;48.792;9.164;2023-03-21T10:03:04;15.60;61.30
152;DHT22;68;48.792;9.164;2023-03-21T10:05:36;15.60;61.70
152;DHT22;68;48.792;9.164;2023-03-21T10:08:08;15.60;62.10
152;DHT22;68;48.792;9.164;2023-03-21T10:10:44;15.60;62.80
152;DHT22;68;48.792;9.164;2023-03-21T10:13:14;15.50;62.70
152;DHT22;68;48.792;9.164;2023-03-21T10:15:42;15.40;63.80
152;DHT22;68;48.792;9.164;2023-03-21T10:18:12;15.50;63.20
152;DHT22;68;48.792;9.164;2023-03-21T10:20:41;15.70;61.50
152;DHT22;68;48.792;9.164;2023-03-21T10:23:12;15.60;62.10
152;DHT22;68;48.792;9.164;2023-03-21T10:25:41;15.90;62.40
152;DHT22;68;48.792;9.164;2023-03-21T10:28:14;15.90;62.10
152;DHT22;68;48.792;9.164;2023-03-21T10:30:43;16.10;62.30
152;DHT22;68;48.792;9.164;2023-03-21T10:33:14;16.20;62.20
152;DHT22;68;48.792;9.164;2023-03-21T10:35:44;16.20;61.50
152;DHT22;68;48.792;9.164;2023-03-21T10:38:16;15.80;62.20
152;DHT22;68;48.792;9.164;2023-03-21T10:40:43;16.20;62.50
152;DHT22;68;48.792;9.164;2023-03-21T10:43:30;16.40;61.20
152;DHT22;68;48.792;9.164;2023-03-21T10:46:06;16.70;62.10
152;DHT22;68;48.792;9.164;2023-03-21T10:48:35;16.90;61.50
152;DHT22;68;48.792;9.164;2023-03-21T10:51:04;17.30;60.40
152;DHT22;68;48.792;9.164;2023-03-21T10:53:37;17.40;59.00
152;DHT22;68;48.792;9.164;2023-03-21T10:56:07;17.30;60.10
152;DHT22;68;48.792;9.164;2023-03-21T10:58:37;17.40;60.10
152;DHT22;68;48.792;9.164;2023-03-21T11:01:07;17.50;59.30
152;DHT22;68;48.792;9.164;2023-03-21T11:03:38;17.70;58.60
152;DHT22;68;48.792;9.164;2023-03-21T11:06:13;17.60;60.40
152;DHT22;68;48.792;9.164;2023-03-21T11:08:45;17.50;59.30
152;DHT22;68;48.792;9.164;2023-03-21T11:11:19;17.10;60.70
152;DHT22;68;48.792;9.164;2023-03-21T11:13:55;17.30;60.80
152;DHT22;68;48.792;9.164;2023-03-21T11:16:25;17.60;59.20
152;DHT22;68;48.792;9.164;2023-03-21T11:18:59;17.60;58.40
152;DHT22;68;48.792;9.164;2023-03-21T11:21:26;17.80;58.60
152;DHT22;68;48.792;9.164;2023-03-21T11:23:55;17.90;57.90
152;DHT22;68;48.792;9.164;2023-03-21T11:26:26;17.80;57.40
152;DHT22;68;48.792;9.164;2023-03-21T11:28:55;18.00;57.40
152;DHT22;68;48.792;9.164;2023-03-21T11:31:23;17.60;59.60
152;DHT22;68;48.792;9.164;2023-03-21T11:34:05;17.30;61.30
152;DHT22;68;48.792;9.164;2023-03-21T11:36:33;17.50;61.20
152;DHT22;68;48.792;9.164;2023-03-21T11:39:13;17.40;61.70
152;DHT22;68;48.792;9.164;2023-03-21T11:41:42;16.20;61.50
152;DHT22;68;48.792;9.164;2023-03-21T11:44:26;16.00;62.30
152;DHT22;68;48.792;9.164;2023-03-21T11:46:53;15.90;62.90
152;DHT22;68;48.792;9.164;2023-03-21T11:49:21;15.80;63.00
152;DHT22;68;48.792;9.164;2023-03-21T11:51:56;16.10;63.20
152;DHT22;68;48.792;9.164;2023-03-21T11:54:32;16.00;63.60
152;DHT22;68;48.792;9.164;2023-03-21T11:57:02;16.30;63.60
152;DHT22;68;48.792;9.164;2023-03-21T11:59:38;16.40;64.60
152;DHT22;68;48.792;9.164;2023-03-21T12:02:32;16.30;62.80
152;DHT22;68;48.792;9.164;2023-03-21T12:05:04;16.20;63.90
152;DHT22;68;48.792;9.164;2023-03-21T12:07:49;15.80;64.20
152;DHT22;68;48.792;9.164;2023-03-21T12:10:38;15.60;66.30
152;DHT22;68;48.792;9.164;2023-03-21T12:13:29;15.70;66.20
152;DHT22;68;48.792;9.164;2023-03-21T12:16:09;15.60;66.30
152;DHT22;68;48.792;9.164;2023-03-21T12:18:57;15.30;66.60
152;DHT22;68;48.792;9.164;2023-03-21T12:21:32;15.30;66.80
152;DHT22;68;48.792;9.164;2023-03-21T12:24:04;15.30;66.60
152;DHT22;68;48.792;9.164;2023-03-21T12:26:40;15.50;66.10
152;DHT22;68;48.792;9.164;2023-03-21T12:29:28;15.90;66.30
152;DHT22;68;48.792;9.164;2023-03-21T12:32:06;16.10;66.10
152;DHT22;68;48.792;9.164;2023-03-21T12:35:01;15.70;64.80
152;DHT22;68;48.792;9.164;2023-03-21T12:37:36;16.20;65.00
152;DHT22;68;48.792;9.164;2023-03-21T12:40:13;16.40;64.20
152;DHT22;68;48.792;9.164;2023-03-21T12:42:55;16.60;64.60
152;DHT22;68;48.792;9.164;2023-03-21T12:45:27;16.50;64.20
152;DHT22;68;48.792;9.164;2023-03-21T12:48:01;16.70;63.90
152;DHT22;68;48.792;9.164;2023-03-21T12:50:31;17.10;63.40
152;DHT22;68;48.792;9.164;2023-03-21T12:53:11;16.70;63.50
152;DHT22;68;48.792;9.164;2023-03-21T12:55:40;17.00;59.80
152;DHT22;68;48.792;9.164;2023-03-21T12:58:13;17.20;58.90
152;DHT22;68;48.792;9.164;2023-03-21T13:00:44;17.50;57.30
152;DHT22;68;48.792;9.164;2023-03-21T13:03:16;17.80;55.60
152;DHT22;68;48.792;9.164;2023-03-21T13:05:49;18.10;54.00
152;DHT22;68;48.792;9.164;2023-03-21T13:08:22;18.10;53.10
152;DHT22;68;48.792;9.164;2023-03-21T13:10:50;18.10;53.40
152;DHT22;68;48.792;9.164;2023-03-21T13:13:23;17.70;54.70
152;DHT22;68;48.792;9.164;2023-03-21T13:16:09;17.30;55.40
152;DHT22;68;48.792;9.164;2023-03-21T13:18:53;17.10;57.60
152;DHT22;68;48.792;9.164;2023-03-21T13:21:35;17.40;53.80
152;DHT22;68;48.792;9.164;2023-03-21T13:24:17;17.10;53.90
152;DHT22;68;48.792;9.164;2023-03-21T13:26:47;16.80;58.30
152;DHT22;68;48.792;9.164;2023-03-21T13:29:24;17.00;61.00
152;DHT22;68;48.792;9.164;2023-03-21T13:31:53;16.50;62.80
152;DHT22;68;48.792;9.164;2023-03-21T13:34:22;16.40;62.20
152;DHT22;68;48.792;9.164;2023-03-21T13:36:50;16.20;64.30
152;DHT22;68;48.792;9.164;2023-03-21T13:39:23;16.00;64.20
152;DHT22;68;48.792;9.164;2023-03-21T13:41:51;16.00;63.00
152;DHT22;68;48.792;9.164;2023-03-21T13:44:24;15.90;62.50
152;DHT22;68;48.792;9.164;2023-03-21T13:46:59;15.80;62.70
152;DHT22;68;48.792;9.164;2023-03-21T13:49:30;15.80;63.70
152;DHT22;68;48.792;9.164;2023-03-21T13:51:59;15.90;63.00
152;DHT22;68;48.792;9.164;2023-03-21T13:57:22;15.80;64.00
152;DHT22;68;48.792;9.164;2023-03-21T14:00:15;15.90;66.10
152;DHT22;68;48.792;9.164;2023-03-21T14:02:52;15.60;64.90
152;DHT22;68;48.792;9.164;2023-03-21T14:05:21;15.70;65.20
152;DHT22;68;48.792;9.164;2023-03-21T14:07:50;15.80;65.30
152;DHT22;68;48.792;9.164;2023-03-21T14:10:22;15.90;64.80
152;DHT22;68;48.792;9.164;2023-03-21T14:12:50;16.00;64.80
152;DHT22;68;48.792;9.164;2023-03-21T14:15:22;16.10;65.30
152;DHT22;68;48.792;9.164;2023-03-21T14:17:52;15.90;64.60
152;DHT22;68;48.792;9.164;2023-03-21T14:20:21;15.90;65.10
152;DHT22;68;48.792;9.164;2023-03-21T14:22:49;15.80;64.40
152;DHT22;68;48.792;9.164;2023-03-21T14:25:17;15.70;64.50
152;DHT22;68;48.792;9.164;2023-03-21T14:27:47;15.50;65.40
152;DHT22;68;48.792;9.164;2023-03-21T14:30:23;15.60;65.60
152;DHT22;68;48.792;9.164;2023-03-21T14:32:53;15.70;65.50
152;DHT22;68;48.792;9.164;2023-03-21T14:35:21;15.80;64.70
152;DHT22;68;48.792;9.164;2023-03-21T14:37:49;15.70;65.50
152;DHT22;68;48.792;9.164;2023-03-21T14:40:21;15.70;66.10
152;DHT22;68;48.792;9.164;2023-03-21T14:42:50;15.80;66.30
152;DHT22;68;48.792;9.164;2023-03-21T14:45:20;16.00;65.50
152;DHT22;68;48.792;9.164;2023-03-21T14:47:58;15.60;65.30
152;DHT22;68;48.792;9.164;2023-03-21T14:50:35;15.70;65.30
152;DHT22;68;48.792;9.164;2023-03-21T14:53:02;15.90;66.10
152;DHT22;68;48.792;9.164;2023-03-21T14:55:29;15.90;66.20
152;DHT22;68;48.792;9.164;2023-03-21T14:57:56;15.60;66.10
152;DHT22;68;48.792;9.164;2023-03-21T15:00:26;15.70;65.50
152;DHT22;68;48.792;9.164;2023-03-21T15:02:54;15.80;66.20
152;DHT22;68;48.792;9.164;2023-03-21T15:05:26;15.60;66.20
152;DHT22;68;48.792;9.164;2023-03-21T15:07:57;15.70;66.10
152;DHT22;68;48.792;9.164;2023-03-21T15:10:25;15.70;65.60
152;DHT22;68;48.792;9.164;2023-03-21T15:12:55;15.80;66.60
152;DHT22;68;48.792;9.164;2023-03-21T15:15:24;15.60;65.20
152;DHT22;68;48.792;9.164;2023-03-21T15:17:52;15.60;67.40
152;DHT22;68;48.792;9.164;2023-03-21T15:20:22;15.80;67.40
152;DHT22;68;48.792;9.164;2023-03-21T15:22:52;16.10;66.80
152;DHT22;68;48.792;9.164;2023-03-21T15:25:25;16.50;65.70
152;DHT22;68;48.792;9.164;2023-03-21T15:27:53;16.30;65.10
152;DHT22;68;48.792;9.164;2023-03-21T15:30:24;16.10;66.20
152;DHT22;68;48.792;9.164;2023-03-21T15:32:52;16.20;67.10
152;DHT22;68;48.792;9.164;2023-03-21T15:35:23;16.50;66.70
152;DHT22;68;48.792;9.164;2023-03-21T15:37:55;16.40;66.80
152;DHT22;68;48.792;9.164;2023-03-21T15:40:25;16.00;67.30
152;DHT22;68;48.792;9.164;2023-03-21T15:43:03;15.80;68.80
152;DHT22;68;48.792;9.164;2023-03-21T15:45:32;15.80;69.10
152;DHT22;68;48.792;9.164;2023-03-21T15:48:01;15.60;70.20
152;DHT22;68;48.792;9.164;2023-03-21T15:50:33;15.40;70.80
152;DHT22;68;48.792;9.164;2023-03-21T15:53:04;15.30;71.50
152;DHT22;68;48.792;9.164;2023-03-21T15:55:39;15.20;71.80
152;DHT22;68;48.792;9.164;2023-03-21T15:58:13;15.20;72.70
152;DHT22;68;48.792;9.164;2023-03-21T16:00:48;15.30;72.10
152;DHT22;68;48.792;9.164;2023-03-21T16:03:20;15.40;71.70
152;DHT22;68;48.792;9.164;2023-03-21T16:06:05;15.30;72.10
152;DHT22;68;48.792;9.164;2023-03-21T16:08:33;15.60;72.00
152;DHT22;68;48.792;9.164;2023-03-21T16:11:11;15.80;70.50
152;DHT22;68;48.792;9.164;2023-03-21T16:13:39;15.90;70.80
152;DHT22;68;48.792;9.164;2023-03-21T16:16:10;15.70;70.40
152;DHT22;68;48.792;9.164;2023-03-21T16:18:40;15.50;71.00
152;DHT22;68;48.792;9.164;2023-03-21T16:21:09;15.30;71.30
152;DHT22;68;48.792;9.164;2023-03-21T16:23:37;15.30;72.20
152;DHT22;68;48.792;9.164;2023-03-21T16:26:04;15.20;73.40
152;DHT22;68;48.792;9.164;2023-03-21T16:28:31;15.40;72.20
152;DHT22;68;48.792;9.164;2023-03-21T16:30:58;15.40;72.00
152;DHT22;68;48.792;9.164;2023-03-21T16:33:26;15.50;72.10
152;DHT22;68;48.792;9.164;2023-03-21T16:35:53;15.40;71.30
152;DHT22;68;48.792;9.164;2023-03-21T16:38:22;15.10;72.50
152;DHT22;68;48.792;9.164;2023-03-21T16:40:49;15.10;73.20
152;DHT22;68;48.792;9.164;2023-03-21T16:43:16;15.20;73.20
152;DHT22;68;48.792;9.164;2023-03-21T16:45:43;15.30;72.90
152;DHT22;68;48.792;9.164;2023-03-21T16:48:10;15.20;73.20
152;DHT22;68;48.792;9.164;2023-03-21T16:50:45;15.10;73.40
152;DHT22;68;48.792;9.164;2023-03-21T16:53:12;14.90;73.60
152;DHT22;68;48.792;9.164;2023-03-21T16:55:39;14.90;73.40
152;DHT22;68;48.792;9.164;2023-03-21T16:58:06;14.90;73.20
152;DHT22;68;48.792;9.164;2023-03-21T17:00:34;14.80;74.10
152;DHT22;68;48.792;9.164;2023-03-21T17:03:11;14.80;73.40
152;DHT22;68;48.792;9.164;2023-03-21T17:05:38;14.60;74.60
152;DHT22;68;48.792;9.164;2023-03-21T17:08:11;14.80;74.90
152;DHT22;68;48.792;9.164;2023-03-21T17:10:38;14.90;75.00
152;DHT22;68;48.792;9.164;2023-03-21T17:13:05;14.80;75.00
152;DHT22;68;48.792;9.164;2023-03-21T17:15:32;14.90;76.00
152;DHT22;68;48.792;9.164;2023-03-21T17:17:58;15.10;76.00
152;DHT22;68;48.792;9.164;2023-03-21T17:20:29;15.10;74.60
152;DHT22;68;48.792;9.164;2023-03-21T17:22:56;15.10;74.80
152;DHT22;68;48.792;9.164;2023-03-21T17:25:24;14.90;74.10
152;DHT22;68;48.792;9.164;2023-03-21T17:27:51;14.80;74.90
152;DHT22;68;48.792;9.164;2023-03-21T17:30:21;14.90;75.40